createdAt,value
2018-12-31T08:50:42.372Z,7.70
2018-12-31T08:53:10.651Z,4.53
2018-12-31T08:55:38.995Z,6.23
2018-12-31T08:58:07.297Z,15.03
2018-12-31T09:00:35.669Z,5.40
2018-12-31T09:03:03.938Z,8.03
2018-12-31T09:05:32.251Z,8.53
2018-12-31T09:08:00.596Z,10.60
2018-12-31T09:10:28.919Z,8.27
2018-12-31T09:12:57.307Z,10.50
2018-12-31T09:15:25.579Z,4.90
2018-12-31T09:17:53.845Z,11.47
2018-12-31T09:20:22.903Z,11.47
2018-12-31T09:22:51.171Z,7.07
2018-12-31T09:25:19.481Z,10.90
2018-12-31T09:27:47.823Z,6.77
2018-12-31T09:30:16.106Z,8.67
2018-12-31T09:32:44.389Z,12.27
2018-12-31T09:35:34.038Z,14.17
2018-12-31T09:38:02.371Z,18.63
2018-12-31T09:40:30.662Z,15.73
2018-12-31T09:45:46.482Z,17.73
2018-12-31T09:48:17.736Z,12.47
2018-12-31T09:50:46.079Z,7.23
2018-12-31T09:53:23.022Z,5.60
2018-12-31T09:55:51.877Z,8.33
2018-12-31T09:58:20.282Z,6.00
2018-12-31T10:00:48.991Z,10.10
2018-12-31T10:03:17.729Z,8.93
2018-12-31T10:05:50.771Z,10.27
2018-12-31T10:08:19.452Z,7.83
2018-12-31T10:10:56.417Z,4.17
2018-12-31T10:13:32.370Z,12.30
2018-12-31T10:16:06.680Z,11.80
2018-12-31T10:18:45.165Z,8.93
2018-12-31T10:21:13.450Z,9.23
2018-12-31T10:23:41.775Z,7.90
2018-12-31T10:26:10.136Z,14.80
2018-12-31T10:28:38.486Z,11.50
2018-12-31T10:31:06.847Z,8.03
2018-12-31T10:33:35.242Z,10.43
2018-12-31T10:36:03.551Z,13.37
2018-12-31T10:38:31.851Z,8.20
2018-12-31T10:41:00.208Z,5.73
2018-12-31T10:43:28.626Z,6.00
2018-12-31T10:45:56.912Z,6.90
2018-12-31T10:48:25.280Z,10.10
2018-12-31T10:50:53.670Z,7.50
2018-12-31T10:53:21.939Z,6.97
2018-12-31T10:55:50.286Z,8.97
2018-12-31T10:58:18.556Z,6.07
2018-12-31T11:00:46.835Z,5.20
2018-12-31T11:03:15.200Z,8.17
2018-12-31T11:05:43.575Z,13.30
2018-12-31T11:08:11.845Z,30.80
2018-12-31T11:10:40.128Z,7.37
2018-12-31T11:13:08.479Z,7.23
2018-12-31T11:15:36.786Z,10.53
2018-12-31T11:18:05.071Z,26.50
2018-12-31T11:20:33.352Z,10.73
2018-12-31T11:23:01.668Z,38.43
2018-12-31T11:25:29.954Z,9.37
2018-12-31T11:27:58.231Z,5.33
2018-12-31T11:30:26.505Z,5.17
2018-12-31T11:32:54.855Z,15.03
2018-12-31T11:35:23.220Z,10.80
2018-12-31T11:37:51.575Z,27.53
2018-12-31T11:40:19.894Z,22.80
2018-12-31T11:42:48.163Z,9.77
2018-12-31T11:45:16.497Z,7.17
2018-12-31T11:47:44.793Z,5.63
2018-12-31T11:50:13.083Z,10.27
2018-12-31T11:52:41.395Z,6.73
2018-12-31T11:55:09.852Z,9.10
2018-12-31T11:57:38.204Z,6.77
2018-12-31T12:00:08.714Z,18.73
2018-12-31T12:02:37.094Z,13.93
2018-12-31T12:05:06.077Z,10.90
2018-12-31T12:07:34.359Z,4.57
2018-12-31T12:10:03.402Z,10.30
2018-12-31T12:12:31.711Z,8.17
2018-12-31T12:14:59.973Z,9.90
2018-12-31T12:17:28.337Z,5.63
2018-12-31T12:19:56.698Z,5.30
2018-12-31T12:22:25.056Z,4.60
2018-12-31T12:24:53.395Z,6.93
2018-12-31T12:27:21.673Z,11.67
2018-12-31T12:29:50.032Z,14.33
2018-12-31T12:32:18.388Z,13.53
2018-12-31T12:34:46.729Z,7.43
2018-12-31T12:37:15.092Z,9.20
2018-12-31T12:39:43.476Z,6.10
2018-12-31T12:42:11.847Z,19.20
2018-12-31T12:44:40.118Z,8.93
2018-12-31T12:47:08.486Z,19.10
2018-12-31T12:49:37.228Z,8.70
2018-12-31T12:52:05.572Z,6.83
2018-12-31T12:54:33.937Z,8.80
2018-12-31T12:57:02.220Z,4.17
2018-12-31T12:59:30.567Z,6.80
2018-12-31T13:01:59.559Z,10.17
2018-12-31T13:04:27.914Z,6.97
2018-12-31T13:06:56.258Z,4.87
2018-12-31T13:09:24.626Z,7.33
2018-12-31T13:11:52.924Z,4.97
2018-12-31T13:14:22.928Z,4.93
2018-12-31T13:16:51.273Z,7.10
2018-12-31T13:19:19.674Z,6.47
2018-12-31T13:21:48.024Z,5.87
2018-12-31T13:24:16.389Z,9.33
2018-12-31T13:26:44.749Z,8.53
2018-12-31T13:29:13.103Z,7.37
2018-12-31T13:31:41.455Z,9.47
2018-12-31T13:34:09.743Z,6.50
2018-12-31T13:36:38.148Z,17.87
2018-12-31T13:39:06.504Z,7.13
2018-12-31T13:41:34.880Z,76.73
2018-12-31T13:44:03.286Z,34.93
2018-12-31T13:46:31.575Z,10.23
2018-12-31T13:48:59.921Z,6.50
2018-12-31T13:51:28.305Z,8.23
2018-12-31T13:53:56.643Z,9.00
2018-12-31T13:56:25.079Z,6.20
2018-12-31T13:58:53.526Z,12.10
2018-12-31T14:01:21.883Z,10.20
2018-12-31T14:03:50.234Z,15.27
2018-12-31T14:06:19.182Z,16.37
2018-12-31T14:08:47.538Z,8.57
2018-12-31T14:11:15.904Z,7.43
2018-12-31T14:13:44.258Z,14.03
2018-12-31T14:16:12.620Z,14.70
2018-12-31T14:18:41.386Z,21.50
2018-12-31T14:21:09.775Z,15.80
2018-12-31T14:23:38.120Z,19.50
2018-12-31T14:26:06.492Z,10.37
2018-12-31T14:28:34.999Z,5.67
2018-12-31T14:31:03.921Z,10.20
2018-12-31T14:33:32.257Z,11.00
2018-12-31T14:36:00.622Z,11.43
2018-12-31T14:38:28.931Z,14.17
2018-12-31T14:40:57.282Z,14.37
2018-12-31T14:43:25.638Z,7.63
2018-12-31T14:45:54.066Z,12.07
2018-12-31T14:48:22.448Z,10.40
2018-12-31T14:50:50.888Z,13.60
2018-12-31T14:53:19.252Z,21.07
2018-12-31T14:55:47.645Z,16.30
2018-12-31T14:58:16.019Z,11.50
2018-12-31T15:00:44.375Z,15.93
2018-12-31T15:03:12.718Z,13.20
2018-12-31T15:05:41.101Z,7.43
2018-12-31T15:08:09.455Z,11.67
2018-12-31T15:10:37.894Z,13.80
2018-12-31T15:13:06.281Z,17.50
2018-12-31T15:15:34.705Z,16.27
2018-12-31T15:18:03.144Z,12.90
2018-12-31T15:20:31.610Z,22.77
2018-12-31T15:23:00.274Z,17.97
2018-12-31T15:25:28.724Z,17.63
2018-12-31T15:27:57.089Z,20.43
2018-12-31T15:30:25.432Z,19.00
2018-12-31T15:32:53.796Z,18.50
2018-12-31T15:35:22.182Z,25.40
2018-12-31T15:37:50.451Z,22.23
2018-12-31T15:40:18.765Z,21.77
2018-12-31T15:42:47.125Z,18.93
2018-12-31T15:45:15.504Z,20.97
2018-12-31T15:47:44.028Z,18.07
2018-12-31T15:50:12.819Z,24.60
2018-12-31T15:52:41.565Z,23.30
2018-12-31T15:55:09.919Z,11.47
2018-12-31T15:57:38.326Z,15.87
2018-12-31T16:00:08.439Z,22.80
2018-12-31T16:02:36.790Z,17.80
2018-12-31T16:05:05.585Z,18.63
2018-12-31T16:07:33.974Z,19.43
2018-12-31T16:10:02.327Z,28.93
2018-12-31T16:12:30.677Z,29.07
2018-12-31T16:14:59.368Z,27.23
2018-12-31T16:17:27.742Z,29.47
2018-12-31T16:19:57.149Z,34.33
2018-12-31T16:22:25.505Z,18.67
2018-12-31T16:24:53.857Z,29.73
2018-12-31T16:27:22.727Z,33.07
2018-12-31T16:29:51.085Z,32.43
2018-12-31T16:32:19.453Z,31.17
2018-12-31T16:34:47.835Z,28.03
2018-12-31T16:37:16.220Z,21.20
2018-12-31T16:39:44.566Z,23.80
2018-12-31T16:42:12.850Z,19.53
2018-12-31T16:44:41.220Z,50.80
2018-12-31T16:47:09.649Z,26.27
2018-12-31T16:49:38.045Z,22.57
2018-12-31T16:52:06.395Z,18.83
2018-12-31T16:54:34.992Z,18.13
2018-12-31T16:57:05.170Z,17.17
2018-12-31T16:59:33.335Z,22.53
2018-12-31T17:02:01.710Z,32.93
2018-12-31T17:04:30.063Z,32.77
2018-12-31T17:06:58.971Z,28.13
2018-12-31T17:09:27.300Z,36.27
2018-12-31T17:11:55.640Z,28.63
2018-12-31T17:14:24.062Z,23.03
2018-12-31T17:16:52.412Z,19.57
2018-12-31T17:19:20.693Z,31.30
2018-12-31T17:21:49.175Z,25.67
2018-12-31T17:24:17.554Z,24.13
2018-12-31T17:26:45.912Z,31.37
2018-12-31T17:29:14.269Z,27.50
2018-12-31T17:31:42.613Z,22.93
2018-12-31T17:34:11.361Z,29.33
2018-12-31T17:36:39.720Z,20.30
2018-12-31T17:39:08.380Z,26.70
2018-12-31T17:41:36.764Z,25.43
2018-12-31T17:44:05.116Z,19.63
2018-12-31T17:46:34.283Z,29.23
2018-12-31T17:49:02.631Z,24.00
2018-12-31T17:51:30.991Z,21.20
2018-12-31T17:53:59.359Z,28.03
2018-12-31T17:56:47.125Z,41.60
2018-12-31T17:59:15.447Z,24.10
2018-12-31T18:01:43.865Z,24.30
2018-12-31T18:04:12.210Z,51.93
2018-12-31T18:06:40.494Z,45.70
2018-12-31T18:09:08.911Z,74.83
2018-12-31T18:11:37.267Z,20.03
2018-12-31T18:14:05.642Z,22.10
2018-12-31T18:16:34.013Z,23.13
2018-12-31T18:19:02.382Z,23.83
2018-12-31T18:21:30.698Z,17.87
2018-12-31T18:23:58.984Z,23.07
2018-12-31T18:26:27.388Z,17.83
2018-12-31T18:28:55.767Z,19.70
2018-12-31T18:31:24.065Z,26.97
2018-12-31T18:33:52.434Z,24.27
2018-12-31T18:36:21.257Z,25.13
2018-12-31T18:38:49.887Z,15.03
2018-12-31T18:41:18.221Z,21.77
2018-12-31T18:43:46.581Z,18.13
2018-12-31T18:46:14.959Z,16.67
2018-12-31T18:48:43.722Z,19.27
2018-12-31T18:51:12.087Z,26.93
2018-12-31T18:53:40.439Z,29.60
2018-12-31T18:56:08.786Z,31.77
2018-12-31T18:58:37.165Z,29.53
2018-12-31T19:01:05.457Z,20.07
2018-12-31T19:03:33.827Z,31.70
2018-12-31T19:06:02.207Z,92.37
2018-12-31T19:08:30.572Z,39.20
2018-12-31T19:10:58.943Z,149.13
2018-12-31T19:13:27.382Z,65.13
2018-12-31T19:15:56.144Z,46.97
2018-12-31T19:18:24.587Z,51.50
2018-12-31T19:20:52.930Z,81.20
2018-12-31T19:23:21.329Z,74.40
2018-12-31T19:25:49.701Z,85.00
2018-12-31T19:28:18.031Z,98.23
2018-12-31T19:30:46.398Z,103.53
2018-12-31T19:33:14.809Z,99.60
2018-12-31T19:35:43.130Z,84.73
2018-12-31T19:38:11.461Z,59.17
2018-12-31T19:40:39.744Z,63.57
2018-12-31T19:43:08.200Z,68.07
2018-12-31T19:45:36.507Z,66.67
2018-12-31T19:48:04.876Z,71.67
2018-12-31T19:50:33.226Z,59.40
2018-12-31T19:53:01.579Z,52.10
2018-12-31T19:55:29.957Z,44.43
2018-12-31T19:57:58.326Z,50.97
2018-12-31T20:00:26.679Z,44.63
2018-12-31T20:02:55.056Z,45.87
2018-12-31T20:05:23.417Z,42.07
2018-12-31T20:07:51.854Z,39.73
2018-12-31T20:10:20.197Z,63.03
2018-12-31T20:12:48.571Z,74.53
2018-12-31T20:15:16.939Z,75.53
2018-12-31T20:17:45.231Z,68.43
2018-12-31T20:20:13.575Z,66.23
2018-12-31T20:22:42.506Z,62.83
2018-12-31T20:25:10.849Z,69.57
2018-12-31T20:27:39.203Z,60.73
2018-12-31T20:30:09.236Z,80.57
2018-12-31T20:32:37.582Z,99.70
2018-12-31T20:35:05.860Z,88.53
2018-12-31T20:37:34.440Z,80.13
2018-12-31T20:40:02.790Z,80.07
2018-12-31T20:42:31.142Z,87.17
2018-12-31T20:44:59.529Z,64.77
2018-12-31T20:47:27.871Z,68.63
2018-12-31T20:49:56.224Z,59.27
2018-12-31T20:52:24.603Z,49.37
2018-12-31T20:54:52.960Z,50.57
2018-12-31T20:57:21.320Z,44.60
2018-12-31T20:59:49.703Z,41.67
2018-12-31T21:02:18.067Z,37.33
2018-12-31T21:04:46.426Z,29.03
2018-12-31T21:07:14.776Z,33.30
2018-12-31T21:09:43.145Z,29.70
2018-12-31T21:12:11.498Z,39.90
2018-12-31T21:14:39.882Z,29.43
2018-12-31T21:17:08.234Z,39.37
2018-12-31T21:19:36.595Z,30.70
2018-12-31T21:22:04.966Z,28.93
2018-12-31T21:24:33.321Z,41.17
2018-12-31T21:27:01.683Z,44.10
2018-12-31T21:29:30.040Z,65.13
2018-12-31T21:31:58.386Z,65.03
2018-12-31T21:34:26.820Z,78.97
2018-12-31T21:36:55.180Z,82.97
2018-12-31T21:39:23.560Z,55.10
2018-12-31T21:41:51.918Z,57.70
2018-12-31T21:44:20.299Z,54.87
2018-12-31T21:46:49.126Z,52.60
2018-12-31T21:49:17.483Z,64.43
2018-12-31T21:51:45.835Z,53.53
2018-12-31T21:54:14.186Z,47.87
2018-12-31T21:56:42.467Z,46.13
2018-12-31T21:59:10.824Z,45.87
2018-12-31T22:01:39.191Z,46.73
2018-12-31T22:04:07.578Z,47.00
2018-12-31T22:06:35.922Z,46.87
2018-12-31T22:09:06.118Z,43.53
2018-12-31T22:11:34.422Z,39.30
2018-12-31T22:14:02.714Z,49.67
2018-12-31T22:16:31.110Z,47.77
2018-12-31T22:18:59.468Z,47.23
2018-12-31T22:21:29.254Z,46.37
2018-12-31T22:23:57.702Z,46.20
2018-12-31T22:26:26.562Z,46.37
2018-12-31T22:28:54.916Z,53.93
2018-12-31T22:31:23.229Z,45.83
2018-12-31T22:33:51.572Z,53.47
2018-12-31T22:36:19.927Z,47.50
2018-12-31T22:38:48.269Z,51.10
2018-12-31T22:41:16.550Z,55.97
2018-12-31T22:43:44.901Z,59.80
2018-12-31T22:46:13.291Z,54.17
2018-12-31T22:48:44.568Z,51.40
2018-12-31T22:51:12.956Z,55.73
2018-12-31T22:53:41.318Z,62.17
2018-12-31T22:56:09.667Z,60.43
2018-12-31T22:58:38.028Z,60.87
2018-12-31T23:01:06.403Z,54.07
2018-12-31T23:03:34.750Z,253.10
2018-12-31T23:06:03.405Z,74.13
2018-12-31T23:08:31.799Z,67.70
2018-12-31T23:11:00.146Z,73.53
2018-12-31T23:13:28.839Z,96.43
2018-12-31T23:15:58.495Z,91.87
2018-12-31T23:18:27.260Z,89.00
2018-12-31T23:20:55.676Z,89.97
2018-12-31T23:23:24.029Z,87.07
2018-12-31T23:25:52.397Z,75.97
2018-12-31T23:28:20.784Z,81.83
2018-12-31T23:30:49.140Z,76.07
2018-12-31T23:33:17.523Z,82.63
2018-12-31T23:35:47.539Z,67.77
2018-12-31T23:38:15.886Z,69.43
2018-12-31T23:40:45.897Z,68.50
2018-12-31T23:43:14.224Z,71.97
2018-12-31T23:45:42.570Z,72.63
2018-12-31T23:48:10.851Z,78.70
2018-12-31T23:50:39.218Z,67.30
2018-12-31T23:53:07.603Z,68.30
2018-12-31T23:55:35.994Z,72.33
2018-12-31T23:58:04.801Z,75.97
